Aviation Digital Data Service (ADDS)

Output produced by METARs form (1840 UTC 18 June 2019)
found at http://www.aviationweather.gov/metar/data/
 
WABB 181800Z 28006KT 9000 -RA SCT018 BKN100 27/25 Q1007
TAF AMD WABB 181730Z 1818/2000 26008KT 9000 RA SCT018 
     BECMG 1821/1823 9999 NSW
       
WAAA 181800Z 00000KT 8000 FEW020 23/23 Q1010 NOSIG
TAF WAAA 181700Z 1818/2000 12004KT 8000 FEW019 
     BECMG 1821/1823 19006KT 9999 
     BECMG 1903/1905 31010KT
       
WAPP 181400Z 34005KT 9999 BKN017 24/23 Q1012 NOSIG
TAF WAPP 181700Z 1818/1918 34005KT 9999 SCT018 
     BECMG 1900/1903 16007KT 
     TEMPO 1904/1906 5000 RA BKN015
       
TAF COR WIMM 181700Z 1818/1918 23005KT 8000 SCT018 
     BECMG 1822/1901 VRB05KT 5000 HZ 
     BECMG 1904/1906 35010KT 9000 NSW
       
WAMM 181830Z VRB01KT 9999 SCT022 24/23 Q1009 NOSIG
TAF WAMM 181700Z 1818/1924 10004KT 9000 SCT022 
     BECMG 1800/1802 30007KT 
     PROB40 
     TEMPO 1904/1908 6000 -RA SCT018
       
WIII 181830Z VRB02KT 3000 HZ FEW020 25/22 Q1011 NOSIG
TAF WIII 181700Z 1818/1924 VRB03KT 5000 HZ FEW020 
     BECMG 1823/1901 04010KT 9000 SCT020
       
TAF WITT 181700Z 1818/1918 15004KT 7000 SCT018 
     BECMG 1904/1906 28012KT 9999 FEW020 
     BECMG 1912/1914 14004KT SCT018
       
WIPP 181600Z 14004KT 9999 FEW010 26/24 Q1011 NOSIG
TAF WIPP 181700Z 1818/1918 12006KT 9999 SCT010 
     TEMPO 1820/1824 3000 BR
       
WIBB 181800Z 00000KT 8000 SCT017 25/24 Q1008 NOSIG
WIOO 181500Z 00000KT 6000 BKN011 25/24 Q1010 NOSIG